Time;durP1;ratioP1;P1;durP2;ratioP2;P2;SDS_P1;SDS_P2;PMS_P1;PMS_P2;Temp;Humidity;BMP_temperature;BMP_pressure;BME280_temperature;BME280_humidity;BME280_pressure;Samples;Min_cycle;Max_cycle;Signal;HPM_P1;HPM_P2
2023/05/03 00:00:26;;;;;;;115.63;9.23;;;;;;;;;;4984435;28;20658;-56
2023/05/03 00:02:52;;;;;;;103.30;8.65;;;;;;;;;;4987005;28;20117;-58
2023/05/03 00:05:18;;;;;;;95.32;8.63;;;;;;;;;;4985111;28;20025;-56
2023/05/03 00:07:44;;;;;;;117.95;9.32;;;;;;;;;;5021195;28;20046;-58
2023/05/03 00:10:11;;;;;;;102.00;8.95;;;;;;;;;;4984842;28;20795;-56
2023/05/03 00:12:37;;;;;;;114.32;9.18;;;;;;;;;;4986804;28;20027;-57
2023/05/03 00:15:03;;;;;;;95.72;8.80;;;;;;;;;;4984693;28;20060;-56
2023/05/03 00:17:28;;;;;;;79.47;7.68;;;;;;;;;;4984668;28;20034;-57
2023/05/03 00:19:55;;;;;;;122.45;9.27;;;;;;;;;;4984811;28;20088;-56
2023/05/03 00:22:21;;;;;;;96.50;8.18;;;;;;;;;;4983905;28;20037;-55
2023/05/03 00:24:46;;;;;;;129.07;8.75;;;;;;;;;;4985129;28;20326;-56
2023/05/03 00:27:11;;;;;;;117.80;9.05;;;;;;;;;;4983965;28;20149;-57
2023/05/03 00:29:36;;;;;;;99.07;7.77;;;;;;;;;;4988260;28;20454;-57
2023/05/03 00:32:03;;;;;;;102.27;8.17;;;;;;;;;;4984223;28;20640;-57
2023/05/03 00:34:28;;;;;;;112.85;8.75;;;;;;;;;;4984106;28;20848;-56
2023/05/03 00:36:53;;;;;;;97.60;7.97;;;;;;;;;;4983092;28;20133;-55
2023/05/03 00:39:18;;;;;;;116.13;10.00;;;;;;;;;;4985350;28;20014;-55
2023/05/03 00:41:44;;;;;;;102.07;9.77;;;;;;;;;;4985777;28;20367;-57
2023/05/03 00:44:09;;;;;;;97.00;8.27;;;;;;;;;;4984418;28;20257;-55
2023/05/03 00:46:34;;;;;;;119.22;8.77;;;;;;;;;;4987139;28;20257;-56
2023/05/03 00:49:00;;;;;;;89.05;7.82;;;;;;;;;;4985365;28;20439;-56
2023/05/03 00:51:26;;;;;;;108.45;8.48;;;;;;;;;;4983615;28;20101;-61
2023/05/03 00:53:51;;;;;;;135.07;9.25;;;;;;;;;;4983509;28;20038;-57
2023/05/03 00:56:19;;;;;;;120.43;8.80;;;;;;;;;;4985494;28;20042;-59
2023/05/03 00:58:45;;;;;;;125.90;8.32;;;;;;;;;;4984881;28;20771;-56
2023/05/03 01:01:11;;;;;;;94.72;7.95;;;;;;;;;;4982709;28;20177;-57
2023/05/03 01:03:39;;;;;;;110.15;8.38;;;;;;;;;;4984048;28;20022;-56
2023/05/03 01:06:05;;;;;;;85.88;7.93;;;;;;;;;;4986270;28;20137;-57
2023/05/03 01:08:39;;;;;;;63.85;6.93;;;;;;;;;;4985307;28;20095;-55
2023/05/03 01:11:11;;;;;;;111.18;8.73;;;;;;;;;;4984062;28;20039;-57
2023/05/03 01:13:51;;;;;;;102.68;8.85;;;;;;;;;;4986648;28;20436;-56
2023/05/03 01:16:35;;;;;;;85.90;8.18;;;;;;;;;;4985348;28;20053;-57
2023/05/03 01:19:03;;;;;;;110.32;8.68;;;;;;;;;;5009137;28;20109;-57
2023/05/03 01:21:29;;;;;;;98.40;8.25;;;;;;;;;;4983042;28;20053;-57
2023/05/03 01:24:12;;;;;;;161.30;10.00;;;;;;;;;;4984814;28;20022;-56
2023/05/03 01:26:37;;;;;;;85.18;8.20;;;;;;;;;;4985805;28;20099;-55
2023/05/03 01:29:03;;;;;;;87.78;7.72;;;;;;;;;;4985010;28;20025;-58
2023/05/03 01:31:31;;;;;;;114.43;9.40;;;;;;;;;;4985240;28;20056;-56
2023/05/03 01:34:02;;;;;;;119.70;9.10;;;;;;;;;;4983432;28;20806;-57
2023/05/03 01:36:31;;;;;;;99.50;8.37;;;;;;;;;;4983786;28;20034;-58
2023/05/03 01:38:57;;;;;;;104.45;8.50;;;;;;;;;;4984905;28;20094;-58
2023/05/03 01:41:23;;;;;;;102.25;8.10;;;;;;;;;;4983290;28;20026;-57
2023/05/03 01:43:50;;;;;;;142.80;9.70;;;;;;;;;;4983810;28;20026;-57
2023/05/03 01:46:15;;;;;;;109.72;8.55;;;;;;;;;;4983454;28;20069;-57
2023/05/03 01:48:41;;;;;;;123.22;9.55;;;;;;;;;;4984413;28;20065;-57
2023/05/03 01:51:06;;;;;;;97.22;8.63;;;;;;;;;;4985545;28;20061;-56
2023/05/03 01:53:31;;;;;;;91.40;8.33;;;;;;;;;;4985401;28;20037;-56
2023/05/03 01:55:56;;;;;;;112.53;8.25;;;;;;;;;;4983738;28;20289;-57
2023/05/03 01:58:21;;;;;;;97.57;9.30;;;;;;;;;;4984399;28;20018;-56
2023/05/03 02:00:47;;;;;;;126.15;9.23;;;;;;;;;;4981343;28;20257;-58
2023/05/03 02:03:12;;;;;;;98.10;7.63;;;;;;;;;;4984803;28;20430;-57
2023/05/03 02:05:37;;;;;;;106.47;7.75;;;;;;;;;;4982235;28;20026;-55
2023/05/03 02:08:03;;;;;;;97.10;8.07;;;;;;;;;;4985131;28;20057;-57
2023/05/03 02:10:28;;;;;;;99.60;8.40;;;;;;;;;;4983543;28;20338;-57
2023/05/03 02:12:53;;;;;;;101.07;8.48;;;;;;;;;;4985563;28;20256;-57
2023/05/03 02:15:19;;;;;;;134.70;8.80;;;;;;;;;;4982666;28;20031;-57
2023/05/03 02:17:46;;;;;;;89.85;7.80;;;;;;;;;;4984404;28;20300;-57
2023/05/03 02:20:11;;;;;;;95.55;7.68;;;;;;;;;;4984582;28;20022;-58
2023/05/03 02:22:37;;;;;;;102.10;8.95;;;;;;;;;;4985285;28;20023;-58
2023/05/03 02:25:02;;;;;;;75.57;6.25;;;;;;;;;;4983781;28;20151;-58
2023/05/03 02:27:27;;;;;;;105.45;7.72;;;;;;;;;;4982671;28;20027;-58
2023/05/03 02:29:53;;;;;;;92.40;8.13;;;;;;;;;;4985396;28;20041;-57
2023/05/03 02:32:19;;;;;;;107.30;7.97;;;;;;;;;;4983722;28;20277;-57
2023/05/03 02:34:46;;;;;;;105.22;8.70;;;;;;;;;;4999793;28;20416;-58
2023/05/03 02:37:12;;;;;;;106.93;9.10;;;;;;;;;;4977491;28;20096;-58
2023/05/03 02:39:37;;;;;;;100.95;8.68;;;;;;;;;;4986212;28;20800;-56
2023/05/03 02:42:02;;;;;;;85.85;8.02;;;;;;;;;;4983758;28;20100;-58
2023/05/03 02:44:28;;;;;;;95.05;8.80;;;;;;;;;;4983095;28;20139;-56
2023/05/03 02:46:53;;;;;;;116.78;9.10;;;;;;;;;;4984909;28;20041;-56
2023/05/03 02:49:18;;;;;;;96.38;8.00;;;;;;;;;;4984055;28;20030;-57
2023/05/03 02:51:44;;;;;;;106.35;7.65;;;;;;;;;;4982139;28;20148;-57
2023/05/03 02:54:09;;;;;;;114.78;8.27;;;;;;;;;;4983357;28;20029;-58
2023/05/03 02:56:35;;;;;;;94.75;8.05;;;;;;;;;;4982654;28;20038;-55
2023/05/03 02:59:00;;;;;;;84.28;7.47;;;;;;;;;;4983598;28;21022;-55
2023/05/03 03:01:26;;;;;;;98.87;7.67;;;;;;;;;;4980715;28;20547;-57
2023/05/03 03:03:52;;;;;;;145.02;9.57;;;;;;;;;;4984131;28;20331;-58
2023/05/03 03:06:17;;;;;;;95.18;7.25;;;;;;;;;;4984159;28;20479;-58
2023/05/03 03:08:42;;;;;;;85.00;7.20;;;;;;;;;;4984950;28;20030;-56
2023/05/03 03:11:08;;;;;;;97.45;8.27;;;;;;;;;;4982519;28;20034;-56
2023/05/03 03:13:34;;;;;;;96.15;8.13;;;;;;;;;;4982838;28;20022;-55
2023/05/03 03:16:00;;;;;;;101.40;7.93;;;;;;;;;;4982051;28;20690;-57
2023/05/03 03:18:25;;;;;;;107.10;8.50;;;;;;;;;;4985263;28;20077;-57
2023/05/03 03:20:50;;;;;;;93.57;8.35;;;;;;;;;;4983792;28;20563;-57
2023/05/03 03:23:15;;;;;;;96.32;8.00;;;;;;;;;;4983936;28;20091;-56
2023/05/03 03:25:41;;;;;;;110.97;8.60;;;;;;;;;;4981358;28;20239;-56
2023/05/03 03:28:06;;;;;;;119.05;9.00;;;;;;;;;;4982547;28;20342;-57
2023/05/03 03:30:31;;;;;;;105.90;7.63;;;;;;;;;;4968291;28;20039;-56
2023/05/03 03:32:57;;;;;;;114.55;8.80;;;;;;;;;;4982138;28;20473;-55
2023/05/03 03:35:22;;;;;;;120.53;9.03;;;;;;;;;;4981884;28;20068;-58
2023/05/03 03:37:47;;;;;;;98.60;8.13;;;;;;;;;;4983048;28;20358;-56
2023/05/03 03:40:12;;;;;;;132.90;9.53;;;;;;;;;;4981759;28;20026;-58
2023/05/03 03:42:38;;;;;;;109.18;9.25;;;;;;;;;;4981821;28;20323;-57
2023/05/03 03:45:04;;;;;;;117.78;9.52;;;;;;;;;;4982533;28;20050;-58
2023/05/03 03:47:29;;;;;;;80.13;8.02;;;;;;;;;;4983305;28;20075;-58
2023/05/03 03:49:54;;;;;;;109.95;8.40;;;;;;;;;;4982705;28;20074;-57
2023/05/03 03:52:20;;;;;;;145.18;10.00;;;;;;;;;;4983391;28;20546;-56
2023/05/03 03:54:45;;;;;;;108.90;8.25;;;;;;;;;;4984459;28;20515;-57
2023/05/03 03:57:10;;;;;;;75.93;6.93;;;;;;;;;;4982608;28;20034;-58
2023/05/03 03:59:35;;;;;;;124.30;9.05;;;;;;;;;;4982636;28;20021;-57
2023/05/03 04:02:01;;;;;;;101.17;8.57;;;;;;;;;;4982480;28;20038;-58
2023/05/03 04:04:26;;;;;;;109.33;8.60;;;;;;;;;;4981956;28;20257;-56
2023/05/03 04:06:52;;;;;;;101.28;7.60;;;;;;;;;;4982283;28;20273;-56
2023/05/03 04:09:17;;;;;;;114.13;8.07;;;;;;;;;;4983731;28;20022;-56
2023/05/03 04:11:42;;;;;;;110.72;8.13;;;;;;;;;;4982351;28;20854;-59
2023/05/03 04:14:07;;;;;;;102.75;7.32;;;;;;;;;;4982415;28;20041;-57
2023/05/03 04:16:33;;;;;;;89.15;7.28;;;;;;;;;;4983811;28;20075;-57
2023/05/03 04:18:58;;;;;;;105.65;8.52;;;;;;;;;;4982309;28;20386;-55
2023/05/03 04:21:23;;;;;;;101.22;8.25;;;;;;;;;;4982854;28;20184;-58
2023/05/03 04:23:49;;;;;;;148.57;9.93;;;;;;;;;;4982833;28;20044;-58
2023/05/03 04:26:14;;;;;;;96.17;8.27;;;;;;;;;;4986186;28;20631;-58
2023/05/03 04:28:39;;;;;;;94.63;8.07;;;;;;;;;;4986152;28;20357;-57
2023/05/03 04:31:04;;;;;;;116.63;9.00;;;;;;;;;;4986335;28;20088;-56
2023/05/03 04:33:30;;;;;;;99.35;8.45;;;;;;;;;;4985321;28;20257;-58
2023/05/03 04:35:55;;;;;;;96.72;8.70;;;;;;;;;;4984465;28;20449;-57
2023/05/03 04:38:21;;;;;;;116.78;8.75;;;;;;;;;;4983775;28;20050;-56
2023/05/03 04:40:46;;;;;;;132.23;10.00;;;;;;;;;;4984834;28;20340;-57
2023/05/03 04:43:12;;;;;;;92.55;8.73;;;;;;;;;;4986078;28;20037;-57
2023/05/03 04:45:38;;;;;;;102.90;9.13;;;;;;;;;;4983287;28;20084;-59
2023/05/03 04:48:04;;;;;;;99.20;9.05;;;;;;;;;;4986086;28;20022;-58
2023/05/03 04:50:29;;;;;;;127.13;11.52;;;;;;;;;;4985062;28;20077;-56
2023/05/03 04:52:54;;;;;;;120.90;11.70;;;;;;;;;;4986218;28;20527;-56
2023/05/03 04:55:20;;;;;;;111.43;10.65;;;;;;;;;;4986104;28;20038;-58
2023/05/03 04:57:45;;;;;;;132.70;11.45;;;;;;;;;;4984479;28;20080;-57
2023/05/03 05:00:11;;;;;;;99.93;9.48;;;;;;;;;;4985370;28;20093;-59
2023/05/03 05:02:36;;;;;;;91.50;9.68;;;;;;;;;;4985612;28;20025;-57
2023/05/03 05:05:02;;;;;;;104.78;10.65;;;;;;;;;;4984235;28;20154;-56
2023/05/03 05:07:27;;;;;;;115.00;12.02;;;;;;;;;;4983319;28;20392;-57
2023/05/03 05:09:52;;;;;;;128.37;12.87;;;;;;;;;;4984758;28;20118;-57
2023/05/03 05:12:17;;;;;;;111.37;12.30;;;;;;;;;;4970758;28;20269;-57
2023/05/03 05:14:43;;;;;;;107.93;11.75;;;;;;;;;;4985063;28;20265;-57
2023/05/03 05:17:08;;;;;;;122.40;12.60;;;;;;;;;;4983469;28;20096;-58
2023/05/03 05:19:33;;;;;;;107.35;12.95;;;;;;;;;;4984617;28;20295;-57
2023/05/03 05:21:58;;;;;;;119.55;13.52;;;;;;;;;;4984950;28;20037;-58
2023/05/03 05:24:24;;;;;;;131.98;12.85;;;;;;;;;;4983998;28;20404;-57
2023/05/03 05:26:49;;;;;;;97.33;11.17;;;;;;;;;;4984551;28;20083;-58
2023/05/03 05:29:14;;;;;;;114.87;12.63;;;;;;;;;;4983864;28;20305;-59
2023/05/03 05:31:39;;;;;;;98.38;13.02;;;;;;;;;;4985692;28;20802;-61
2023/05/03 05:34:04;;;;;;;108.10;12.40;;;;;;;;;;4984568;28;20022;-59
2023/05/03 05:36:30;;;;;;;119.60;13.00;;;;;;;;;;4983013;28;20273;-59
2023/05/03 05:38:55;;;;;;;91.85;10.70;;;;;;;;;;4986233;28;20287;-60
2023/05/03 05:41:20;;;;;;;93.10;10.18;;;;;;;;;;4983790;28;20045;-59
2023/05/03 05:43:46;;;;;;;128.03;11.87;;;;;;;;;;4975912;28;20021;-59
2023/05/03 05:46:11;;;;;;;93.23;11.00;;;;;;;;;;4984922;28;20258;-59
2023/05/03 05:48:36;;;;;;;77.93;8.80;;;;;;;;;;4983647;28;20051;-59
2023/05/03 05:51:03;;;;;;;109.88;11.07;;;;;;;;;;4984909;28;20272;-58
2023/05/03 05:53:28;;;;;;;103.50;10.75;;;;;;;;;;4984754;28;20045;-56
2023/05/03 05:55:53;;;;;;;116.90;11.32;;;;;;;;;;4983586;28;20046;-56
2023/05/03 05:58:18;;;;;;;124.15;11.35;;;;;;;;;;4982832;28;20038;-56
2023/05/03 06:00:44;;;;;;;84.03;10.05;;;;;;;;;;4981657;28;20076;-57
2023/05/03 06:03:09;;;;;;;104.57;10.00;;;;;;;;;;4985957;28;20034;-57
2023/05/03 06:05:34;;;;;;;81.50;9.30;;;;;;;;;;4983552;28;20129;-58
2023/05/03 06:08:00;;;;;;;98.97;10.57;;;;;;;;;;4984692;28;20548;-58
2023/05/03 06:10:25;;;;;;;100.20;10.00;;;;;;;;;;4985334;28;20026;-56
2023/05/03 06:12:50;;;;;;;84.65;9.75;;;;;;;;;;4985852;28;20030;-59
2023/05/03 06:15:15;;;;;;;89.87;9.73;;;;;;;;;;4983601;28;20483;-59
2023/05/03 06:17:41;;;;;;;95.72;10.43;;;;;;;;;;4983772;28;21175;-58
2023/05/03 06:20:10;;;;;;;100.70;10.32;;;;;;;;;;4984521;28;20029;-60
2023/05/03 06:22:35;;;;;;;110.75;11.07;;;;;;;;;;4983018;28;20029;-56
2023/05/03 06:25:01;;;;;;;101.10;11.27;;;;;;;;;;4983867;28;20025;-57
2023/05/03 06:27:26;;;;;;;101.18;10.50;;;;;;;;;;4982737;28;20382;-59
2023/05/03 06:29:51;;;;;;;102.23;9.87;;;;;;;;;;4984029;28;20037;-60
2023/05/03 06:32:17;;;;;;;71.57;8.68;;;;;;;;;;4984266;28;20296;-59
2023/05/03 06:34:42;;;;;;;99.13;11.48;;;;;;;;;;4983104;28;20058;-60
2023/05/03 06:37:08;;;;;;;95.27;9.30;;;;;;;;;;4982360;28;20145;-58
2023/05/03 06:39:33;;;;;;;100.93;10.07;;;;;;;;;;4985441;28;20273;-59
2023/05/03 06:41:59;;;;;;;111.65;11.48;;;;;;;;;;4982822;28;20109;-58
2023/05/03 06:44:24;;;;;;;115.28;10.70;;;;;;;;;;4984098;28;20101;-59
2023/05/03 06:46:50;;;;;;;75.03;9.90;;;;;;;;;;4984423;28;20026;-58
2023/05/03 06:49:15;;;;;;;110.43;9.77;;;;;;;;;;4983444;28;20109;-59
2023/05/03 06:51:40;;;;;;;112.80;10.93;;;;;;;;;;4980916;28;20492;-57
2023/05/03 06:54:07;;;;;;;108.00;10.37;;;;;;;;;;4981789;28;20683;-60
2023/05/03 06:56:35;;;;;;;101.63;9.63;;;;;;;;;;4984422;28;20125;-57
2023/05/03 06:59:00;;;;;;;103.82;10.50;;;;;;;;;;4984703;28;20029;-58
2023/05/03 07:01:26;;;;;;;118.47;10.60;;;;;;;;;;4980513;28;20034;-58
2023/05/03 07:03:51;;;;;;;142.50;12.18;;;;;;;;;;4968355;28;20087;-58
2023/05/03 07:06:17;;;;;;;84.03;8.83;;;;;;;;;;4980962;28;20030;-57
2023/05/03 07:08:42;;;;;;;96.60;9.98;;;;;;;;;;4984117;28;20375;-59
2023/05/03 07:11:08;;;;;;;69.53;7.60;;;;;;;;;;4980178;28;20035;-58
2023/05/03 07:13:34;;;;;;;93.68;8.85;;;;;;;;;;4983321;28;20049;-57
2023/05/03 07:15:59;;;;;;;97.87;9.67;;;;;;;;;;4981561;28;20039;-59
2023/05/03 07:18:24;;;;;;;89.10;9.13;;;;;;;;;;4983201;28;20284;-60
2023/05/03 07:20:50;;;;;;;99.38;8.75;;;;;;;;;;4981961;28;20108;-59
2023/05/03 07:23:15;;;;;;;76.20;7.93;;;;;;;;;;4984195;28;20030;-60
2023/05/03 07:25:41;;;;;;;68.20;7.63;;;;;;;;;;4982547;28;20030;-56
2023/05/03 07:28:06;;;;;;;90.07;8.65;;;;;;;;;;4984336;28;20014;-60
2023/05/03 07:30:31;;;;;;;73.90;8.17;;;;;;;;;;4983809;28;20133;-58
2023/05/03 07:32:56;;;;;;;90.90;9.13;;;;;;;;;;4983826;28;20106;-58
2023/05/03 07:35:22;;;;;;;77.90;8.40;;;;;;;;;;4983037;28;20037;-58
2023/05/03 07:37:47;;;;;;;66.78;7.78;;;;;;;;;;4984381;28;20022;-59
2023/05/03 07:40:12;;;;;;;77.07;8.38;;;;;;;;;;4983889;28;20351;-61
2023/05/03 07:42:38;;;;;;;67.20;8.10;;;;;;;;;;4970527;28;20017;-58
2023/05/03 07:45:03;;;;;;;70.47;6.70;;;;;;;;;;4980356;28;20125;-56
2023/05/03 07:47:28;;;;;;;75.85;8.48;;;;;;;;;;4981224;28;20516;-56
2023/05/03 07:49:53;;;;;;;77.60;8.45;;;;;;;;;;4984143;28;20130;-59
2023/05/03 07:52:19;;;;;;;65.93;8.03;;;;;;;;;;4982707;28;20053;-60
2023/05/03 07:54:44;;;;;;;75.07;8.18;;;;;;;;;;4983641;28;20023;-60
2023/05/03 07:57:13;;;;;;;62.60;7.57;;;;;;;;;;4981903;28;20044;-56
2023/05/03 07:59:38;;;;;;;81.60;8.70;;;;;;;;;;4984715;28;20045;-56
2023/05/03 08:02:04;;;;;;;69.60;7.53;;;;;;;;;;4984635;28;20707;-56
2023/05/03 08:04:29;;;;;;;74.55;8.48;;;;;;;;;;4983689;28;20340;-57
2023/05/03 08:06:54;;;;;;;81.85;8.60;;;;;;;;;;4985816;28;20030;-57
2023/05/03 08:09:20;;;;;;;59.63;7.33;;;;;;;;;;4986507;28;20101;-57
2023/05/03 08:11:45;;;;;;;65.15;7.25;;;;;;;;;;4985859;28;20041;-56
2023/05/03 08:14:10;;;;;;;83.30;8.93;;;;;;;;;;4984223;28;20032;-58
2023/05/03 08:16:36;;;;;;;62.55;6.97;;;;;;;;;;4986388;28;20046;-56
2023/05/03 08:19:01;;;;;;;74.95;7.97;;;;;;;;;;4984588;28;20117;-58
2023/05/03 08:21:27;;;;;;;88.77;8.80;;;;;;;;;;4984667;28;20030;-55
2023/05/03 08:23:53;;;;;;;122.85;10.43;;;;;;;;;;4985722;28;20539;-56
2023/05/03 08:26:20;;;;;;;67.50;7.90;;;;;;;;;;4985935;28;20034;-57
2023/05/03 08:28:46;;;;;;;68.95;7.65;;;;;;;;;;4987208;28;20026;-58
2023/05/03 08:31:11;;;;;;;87.37;8.73;;;;;;;;;;4986625;28;20045;-59
2023/05/03 08:33:36;;;;;;;62.70;7.10;;;;;;;;;;4983080;28;20109;-58
2023/05/03 08:36:02;;;;;;;66.60;7.50;;;;;;;;;;4982839;28;20680;-58
2023/05/03 08:38:27;;;;;;;75.78;8.10;;;;;;;;;;4984720;28;20377;-59
2023/05/03 08:40:54;;;;;;;74.20;7.57;;;;;;;;;;4985720;28;20145;-58
2023/05/03 08:43:20;;;;;;;73.13;7.85;;;;;;;;;;4985357;28;20033;-59
2023/05/03 08:45:46;;;;;;;62.63;6.47;;;;;;;;;;5018881;28;20057;-56
2023/05/03 08:48:12;;;;;;;47.67;6.45;;;;;;;;;;4986969;28;20414;-58
2023/05/03 08:50:41;;;;;;;83.90;8.63;;;;;;;;;;4985929;28;20395;-56
2023/05/03 08:53:06;;;;;;;82.13;8.82;;;;;;;;;;4985048;28;20427;-57
2023/05/03 08:55:31;;;;;;;69.93;7.35;;;;;;;;;;4984632;28;20038;-59
2023/05/03 08:57:59;;;;;;;69.87;7.77;;;;;;;;;;4986996;28;20421;-56
2023/05/03 09:00:28;;;;;;;64.43;7.35;;;;;;;;;;4984099;28;20440;-56
2023/05/03 09:02:53;;;;;;;71.55;8.00;;;;;;;;;;4987160;28;20030;-58
2023/05/03 09:05:18;;;;;;;83.50;8.50;;;;;;;;;;4984444;28;20022;-56
2023/05/03 09:08:04;;;;;;;58.97;8.07;;;;;;;;;;4985151;28;20287;-55
2023/05/03 09:10:29;;;;;;;89.70;8.60;;;;;;;;;;4983275;28;20404;-56
2023/05/03 09:12:59;;;;;;;58.28;6.50;;;;;;;;;;4986241;28;20480;-58
2023/05/03 09:15:25;;;;;;;91.15;8.23;;;;;;;;;;4982625;28;20030;-56
2023/05/03 09:18:17;;;;;;;68.13;8.05;;;;;;;;;;4986680;28;20048;-55
2023/05/03 09:20:52;;;;;;;101.57;9.25;;;;;;;;;;4979006;28;20042;-58
2023/05/03 09:23:19;;;;;;;58.08;6.65;;;;;;;;;;4983691;28;20019;-55
2023/05/03 09:25:49;;;;;;;83.13;7.35;;;;;;;;;;4983761;28;20042;-58
2023/05/03 09:28:15;;;;;;;68.85;6.43;;;;;;;;;;4985435;28;20026;-56
2023/05/03 09:30:41;;;;;;;91.30;8.23;;;;;;;;;;4984163;28;20076;-58
2023/05/03 09:33:06;;;;;;;59.63;6.80;;;;;;;;;;4984633;28;20506;-56
2023/05/03 09:35:32;;;;;;;66.85;7.35;;;;;;;;;;4985323;28;20470;-58
2023/05/03 09:37:58;;;;;;;84.28;8.50;;;;;;;;;;4986035;28;20026;-57
2023/05/03 09:40:24;;;;;;;69.43;7.60;;;;;;;;;;4985361;28;20139;-56
2023/05/03 09:43:05;;;;;;;66.10;7.47;;;;;;;;;;4984565;28;20030;-56
2023/05/03 09:45:31;;;;;;;73.75;7.97;;;;;;;;;;4982644;28;20444;-57
2023/05/03 09:47:56;;;;;;;65.10;6.87;;;;;;;;;;4984666;28;20483;-58
2023/05/03 09:50:22;;;;;;;83.35;7.13;;;;;;;;;;4984836;28;20057;-59
2023/05/03 09:52:47;;;;;;;76.40;8.00;;;;;;;;;;4984844;28;20137;-57
2023/05/03 09:55:22;;;;;;;77.90;7.32;;;;;;;;;;4983525;28;20572;-58
2023/05/03 09:57:49;;;;;;;75.35;7.65;;;;;;;;;;5018662;28;20111;-59
2023/05/03 10:00:16;;;;;;;63.53;6.70;;;;;;;;;;4985086;28;20483;-56
2023/05/03 10:02:41;;;;;;;69.75;7.45;;;;;;;;;;4983627;28;20030;-56
2023/05/03 10:05:09;;;;;;;66.45;6.93;;;;;;;;;;4981838;28;20022;-56
2023/05/03 10:07:35;;;;;;;79.18;7.30;;;;;;;;;;4982642;28;20045;-58
2023/05/03 10:10:01;;;;;;;65.32;6.47;;;;;;;;;;4983955;28;20026;-58
2023/05/03 10:12:26;;;;;;;78.30;7.13;;;;;;;;;;4983280;28;20042;-57
2023/05/03 10:14:52;;;;;;;76.68;7.32;;;;;;;;;;4981856;28;20023;-59
2023/05/03 10:17:25;;;;;;;74.32;7.32;;;;;;;;;;4984034;28;20161;-57
2023/05/03 10:19:54;;;;;;;73.68;6.53;;;;;;;;;;5015180;28;20518;-58
2023/05/03 10:22:19;;;;;;;65.93;6.57;;;;;;;;;;4981488;28;20087;-56
2023/05/03 10:24:54;;;;;;;70.25;6.82;;;;;;;;;;4984133;28;20018;-57
2023/05/03 10:27:20;;;;;;;50.22;5.85;;;;;;;;;;4983622;28;20102;-57
2023/05/03 10:29:47;;;;;;;52.30;5.90;;;;;;;;;;4983595;28;20079;-59
2023/05/03 10:32:31;;;;;;;76.82;7.18;;;;;;;;;;4981724;28;20023;-59
2023/05/03 10:34:59;;;;;;;72.13;6.88;;;;;;;;;;4983385;28;20041;-57
2023/05/03 10:37:25;;;;;;;87.82;8.25;;;;;;;;;;4983430;28;20044;-59
2023/05/03 10:39:51;;;;;;;70.72;6.97;;;;;;;;;;4981693;28;20014;-58
2023/05/03 10:42:16;;;;;;;80.40;7.05;;;;;;;;;;4981526;28;20108;-59
2023/05/03 10:44:47;;;;;;;72.90;6.93;;;;;;;;;;4982681;28;20024;-58
2023/05/03 10:47:16;;;;;;;65.93;6.68;;;;;;;;;;4983870;28;20086;-58
2023/05/03 10:49:42;;;;;;;68.72;6.72;;;;;;;;;;4982636;28;20029;-59
2023/05/03 10:52:25;;;;;;;66.00;6.47;;;;;;;;;;4981976;28;20107;-59
2023/05/03 10:54:51;;;;;;;64.13;6.40;;;;;;;;;;5014690;28;20049;-58
2023/05/03 10:57:16;;;;;;;64.82;6.30;;;;;;;;;;4983041;28;20514;-59
2023/05/03 10:59:46;;;;;;;71.13;6.60;;;;;;;;;;4983737;28;20383;-60
2023/05/03 11:02:15;;;;;;;68.05;6.65;;;;;;;;;;4982658;28;20035;-58
2023/05/03 11:04:44;;;;;;;75.25;6.93;;;;;;;;;;4982863;28;20034;-59
2023/05/03 11:07:09;;;;;;;76.13;7.00;;;;;;;;;;4981845;28;20042;-57
2023/05/03 11:09:35;;;;;;;66.38;6.63;;;;;;;;;;4983697;28;20166;-56
2023/05/03 11:12:07;;;;;;;92.40;7.45;;;;;;;;;;4981334;28;20041;-57
2023/05/03 11:14:32;;;;;;;;;;;;;;;;;;4983205;28;20022;-59
2023/05/03 11:16:57;;;;;;;78.10;6.95;;;;;;;;;;4982436;28;19920;-57
2023/05/03 11:19:23;;;;;;;59.25;5.85;;;;;;;;;;4984107;28;20033;-58
2023/05/03 11:21:49;;;;;;;66.55;6.32;;;;;;;;;;4984140;28;20038;-57
2023/05/03 11:24:14;;;;;;;85.82;7.50;;;;;;;;;;4981377;28;20033;-57
2023/05/03 11:26:39;;;;;;;64.60;6.57;;;;;;;;;;4982160;28;20080;-59
2023/05/03 11:29:05;;;;;;;79.27;6.37;;;;;;;;;;4983435;28;20108;-58
2023/05/03 11:31:31;;;;;;;69.05;6.18;;;;;;;;;;4983230;28;20273;-60
2023/05/03 11:33:56;;;;;;;80.65;7.30;;;;;;;;;;4981160;28;20281;-59
2023/05/03 11:36:22;;;;;;;90.43;7.32;;;;;;;;;;4984272;28;20616;-58
2023/05/03 11:38:47;;;;;;;67.20;6.00;;;;;;;;;;4982515;28;20303;-56
2023/05/03 11:41:13;;;;;;;68.40;5.93;;;;;;;;;;4982257;28;20266;-59
2023/05/03 11:43:48;;;;;;;94.03;7.03;;;;;;;;;;4983653;28;20117;-57
2023/05/03 11:46:15;;;;;;;59.35;5.32;;;;;;;;;;4982598;28;20061;-59
2023/05/03 11:48:42;;;;;;;98.82;7.07;;;;;;;;;;4983772;28;20030;-58
2023/05/03 11:51:09;;;;;;;73.82;6.07;;;;;;;;;;4983265;28;20640;-57
2023/05/03 11:53:35;;;;;;;77.28;6.00;;;;;;;;;;4967691;28;20041;-58
2023/05/03 11:56:02;;;;;;;87.85;6.68;;;;;;;;;;4980348;28;20034;-59
2023/05/03 11:58:27;;;;;;;82.13;6.28;;;;;;;;;;4985006;28;20194;-56
2023/05/03 12:00:53;;;;;;;68.47;5.73;;;;;;;;;;4981776;28;20372;-57
2023/05/03 12:03:19;;;;;;;83.55;6.30;;;;;;;;;;4983273;28;20257;-56
2023/05/03 12:05:44;;;;;;;60.60;5.37;;;;;;;;;;4981315;28;20065;-56
2023/05/03 12:08:10;;;;;;;92.25;7.15;;;;;;;;;;4982635;28;20038;-58
2023/05/03 12:10:36;;;;;;;75.82;6.18;;;;;;;;;;4982665;28;20467;-57
2023/05/03 12:13:02;;;;;;;75.78;5.85;;;;;;;;;;4982341;28;20022;-59
2023/05/03 12:15:34;;;;;;;82.95;6.75;;;;;;;;;;4980247;28;20045;-56
2023/05/03 12:18:00;;;;;;;67.20;5.55;;;;;;;;;;4982006;28;20021;-57
2023/05/03 12:20:29;;;;;;;73.55;5.95;;;;;;;;;;4981655;28;20068;-56
2023/05/03 12:22:55;;;;;;;78.18;6.18;;;;;;;;;;4982417;28;20030;-58
2023/05/03 12:25:21;;;;;;;81.88;6.57;;;;;;;;;;4981967;28;20021;-58
2023/05/03 12:27:46;;;;;;;79.68;6.55;;;;;;;;;;4983815;28;20030;-58
2023/05/03 12:30:12;;;;;;;67.82;5.88;;;;;;;;;;4980372;28;20030;-58
2023/05/03 12:32:40;;;;;;;89.15;6.63;;;;;;;;;;4981196;28;20141;-59
2023/05/03 12:35:05;;;;;;;75.05;5.85;;;;;;;;;;4981897;28;20041;-57
2023/05/03 12:37:31;;;;;;;74.07;6.18;;;;;;;;;;4975439;28;20034;-56
2023/05/03 12:39:56;;;;;;;84.17;6.83;;;;;;;;;;4981966;28;20487;-58
2023/05/03 12:42:21;;;;;;;73.55;5.85;;;;;;;;;;4982473;28;20704;-57
2023/05/03 12:44:47;;;;;;;80.05;6.22;;;;;;;;;;4982860;28;20037;-58
2023/05/03 12:47:12;;;;;;;64.80;5.40;;;;;;;;;;4985594;28;20618;-61
2023/05/03 12:49:38;;;;;;;84.38;6.25;;;;;;;;;;4985894;28;20376;-58
2023/05/03 12:52:03;;;;;;;90.15;6.10;;;;;;;;;;4983710;28;20125;-60
2023/05/03 12:54:28;;;;;;;71.60;6.10;;;;;;;;;;4985141;28;20391;-56
2023/05/03 12:56:54;;;;;;;65.47;5.47;;;;;;;;;;4986380;28;20348;-56
2023/05/03 12:59:19;;;;;;;86.38;6.75;;;;;;;;;;4985732;28;20024;-56
2023/05/03 13:01:44;;;;;;;61.92;5.45;;;;;;;;;;4984090;28;20455;-59
2023/05/03 13:04:10;;;;;;;78.78;6.32;;;;;;;;;;4972643;28;20050;-58
2023/05/03 13:06:36;;;;;;;79.20;6.30;;;;;;;;;;4983462;28;20039;-58
2023/05/03 13:09:01;;;;;;;76.75;5.78;;;;;;;;;;4985880;28;20494;-56
2023/05/03 13:11:26;;;;;;;80.22;5.95;;;;;;;;;;4983136;28;20320;-60
2023/05/03 13:13:51;;;;;;;139.00;8.95;;;;;;;;;;4984934;28;20202;-57
2023/05/03 13:16:18;;;;;;;60.47;5.10;;;;;;;;;;4983092;28;20042;-58
2023/05/03 13:18:44;;;;;;;74.15;5.82;;;;;;;;;;4984479;28;20757;-59
2023/05/03 13:21:10;;;;;;;79.18;6.03;;;;;;;;;;4983845;28;20476;-56
2023/05/03 13:23:35;;;;;;;73.57;5.88;;;;;;;;;;4985778;28;20285;-58
2023/05/03 13:26:00;;;;;;;91.87;6.77;;;;;;;;;;4985013;28;20187;-56
2023/05/03 13:28:26;;;;;;;76.00;5.93;;;;;;;;;;4983670;28;20042;-56
2023/05/03 13:30:51;;;;;;;78.10;5.78;;;;;;;;;;4983723;28;20269;-58
2023/05/03 13:33:17;;;;;;;76.20;6.18;;;;;;;;;;4986206;28;20117;-57
2023/05/03 13:35:42;;;;;;;77.80;6.10;;;;;;;;;;4982912;28;20042;-57
2023/05/03 13:38:08;;;;;;;68.70;5.43;;;;;;;;;;4985750;28;20019;-61
2023/05/03 13:40:33;;;;;;;91.82;6.43;;;;;;;;;;4986286;28;20268;-56
2023/05/03 13:42:58;;;;;;;90.77;6.60;;;;;;;;;;4985508;28;20076;-58
2023/05/03 13:45:23;;;;;;;73.57;5.53;;;;;;;;;;4969671;28;20289;-58
2023/05/03 13:47:49;;;;;;;67.03;5.32;;;;;;;;;;4984782;28;20262;-59
2023/05/03 13:50:14;;;;;;;76.63;5.63;;;;;;;;;;4985088;28;20615;-59
2023/05/03 13:52:41;;;;;;;102.35;6.60;;;;;;;;;;4984276;28;20474;-59
2023/05/03 13:55:07;;;;;;;80.93;5.82;;;;;;;;;;4985300;28;20023;-57
2023/05/03 13:57:32;;;;;;;85.30;6.03;;;;;;;;;;4983571;28;20119;-58
2023/05/03 13:59:57;;;;;;;72.55;5.70;;;;;;;;;;4985645;28;20018;-58
2023/05/03 14:02:22;;;;;;;82.70;6.10;;;;;;;;;;4982849;28;20038;-59
2023/05/03 14:04:48;;;;;;;80.28;5.82;;;;;;;;;;4981756;28;20270;-59
2023/05/03 14:07:14;;;;;;;67.93;5.20;;;;;;;;;;4985898;28;20353;-58
2023/05/03 14:09:39;;;;;;;85.13;5.80;;;;;;;;;;4984689;28;20420;-59
2023/05/03 14:12:05;;;;;;;83.22;6.18;;;;;;;;;;4983911;28;20124;-57
2023/05/03 14:14:31;;;;;;;84.15;5.97;;;;;;;;;;4984431;28;20276;-58
2023/05/03 14:16:56;;;;;;;77.57;5.93;;;;;;;;;;4982771;28;20050;-57